METAR AND TAF INFORMATION
METAR FOR USTR
ADDS - METARS form results

(0553 UTC 25 November 2020)
Data provider http://aviationweather.gov/metar/data/
 
METAR text: USTR 250530Z 18006MPS CAVOK M09/M11 Q1031 R21/CLRD65 R12/CLRD65 NOSIG RMK QFE764/1018
Conditions at: USTR (ROSCHINO , RU) observed 0530 UTC 25 November 2020
Temperature: -9.0°C (16°F)
Dewpoint: -11.0°C (12°F) [RH = 85%]
Pressure (altimeter): 30.44 inches Hg (1031.0 mb)
Winds: from the S (180 degrees) at 14 MPH (12 knots; 6.2 m/s)
Visibility: 6 or more miles (10+ km)
Ceiling: ceiling and visibility are OK
Clouds: unknown
Weather: no significant weather observed at this time

METAR text: USTR 250500Z 19006MPS CAVOK M09/M11 Q1031 R21/CLRD65 R12/CLRD65 NOSIG RMK QFE764/1018
Conditions at: USTR (ROSCHINO , RU) observed 0500 UTC 25 November 2020
Temperature: -9.0°C (16°F)
Dewpoint: -11.0°C (12°F) [RH = 85%]
Pressure (altimeter): 30.44 inches Hg (1031.0 mb)
Winds: from the S (190 degrees) at 14 MPH (12 knots; 6.2 m/s)
Visibility: 6 or more miles (10+ km)
Ceiling: ceiling and visibility are OK
Clouds: unknown
Weather: no significant weather observed at this time

Forecast for: USTR (ROSCHINO , RU)
Text: TAF USTR 250441Z 2506/2606 17006G14MPS 9999 DRSN SCT020
Forecast period: 0600 UTC 25 November 2020 to 0600 UTC 26 November 2020
Forecast type: FROM: standard forecast or significant change
Winds: from the S (170 degrees) at 14 MPH (12 knots; 6.2 m/s)
gusting to 31 MPH (27 knots; 13.9 m/s)
Visibility: 6 or more miles (10+ km)
Ceiling: at least 12,000 feet AGL
Clouds: scattered clouds at 2000 feet AGL
Weather: DRSN  (low drifting snow)
Text: TEMPO 2515/2606 BKN007
Forecast period: 1500 UTC 25 November 2020 to 0600 UTC 26 November 2020
Forecast type: TEMPORARY: The following changes expected for less than half the time period
Visibility: missing
Ceiling: 700 feet AGL
Clouds: broken clouds at 700 feet AGL
Weather: no significant weather forecast for this period

 AIRPORT MAP

 RUNWAY INFORMATION

 AIRPORT FREQUENCIES
Type APP Name TYUMEN APP Frequency 126.1 MHZ
Type ATIS Name TYUMEN ATI Frequency 121.7 MHZ
Type GND Name TYUMEN TAX Frequency 119 MHZ
Type RDR Name TYUMEN KRU Frequency 120.4 MHZ
Type TWR Name TYUMEN STA Frequency 118.2 MHZ

 AIRPORT NEAR NAVIGATION AIDS
Type NDB Name Tyumen Frequency 315 KHZ
Type NDB Name Tyumen Frequency 315 KHZ
Type NDB Name Tyumen Frequency 290 KHZ



2018 Air Astana Virtual Airline